OMSJ/SHJ METAR and TAF weather

Enter ICAO airport designator
Station Type Date Time Source
OMSJ METAR 2021/09/25 04:00 UTC NOAA

OMSJ 250400Z VRB02KT 8000 NSC 32/26 Q1007 NOSIG


Station Type Date Time Source
OMSJ Decoded METAR 2021/09/25 04:00 UTC NOAA

Sharjah International Airport, United Arab Emirates (OMSJ) 25-20N 055-31E 33M
Sep 25, 2021 - 12:00 AM EDT / 2021.09.25 0400 UTC
Wind: Variable at 2 MPH (2 KT):0
Visibility: 4 mile(s):0
Temperature: 89 F (32 C)
Heat index: 102.9 F (39.4 C):1
Dew Point: 78 F (26 C)
Relative Humidity: 70%
Pressure (altimeter): 29.74 in. Hg (1007 hPa)
ob: OMSJ 250400Z VRB02KT 8000 NSC 32/26 Q1007 NOSIG
cycle: 4

Station Type Date Time Source
OMSJ TAF 2021/09/24 18:02 UTC NOAA

TAF OMSJ 241700Z 2418/2600 11005KT 6000 NSC
BECMG 2507/2509 33010KT
BECMG 2516/2518 17005KT

Example: see airport list